createdAt,value
2022-09-03T00:00:05.308Z,10.917896
2022-09-03T00:05:07.384Z,10.87465
2022-09-03T00:10:09.174Z,11.22302
2022-09-03T00:15:12.315Z,11.277298
2022-09-03T00:20:14.107Z,11.10369
2022-09-03T00:25:15.995Z,10.9457
2022-09-03T00:30:17.987Z,10.14724
2022-09-03T00:35:20.247Z,10.780654
2022-09-03T00:40:22.327Z,10.515858
2022-09-03T00:45:24.149Z,10.45379
2022-09-03T00:50:27.485Z,10.120156
2022-09-03T00:55:29.363Z,9.992888
2022-09-03T01:00:31.062Z,9.88212
2022-09-03T01:05:32.942Z,9.13011
2022-09-03T01:10:34.877Z,9.234108
2022-09-03T01:15:36.633Z,9.514346
2022-09-03T01:20:38.489Z,9.302674
2022-09-03T01:25:40.142Z,9.14098
2022-09-03T01:30:41.740Z,8.587412
2022-09-03T01:35:43.585Z,9.45901
2022-09-03T01:40:45.387Z,8.798812
2022-09-03T01:45:51.563Z,9.374716
2022-09-03T01:50:54.323Z,9.290436
2022-09-03T01:55:56.147Z,8.946652
2022-09-03T02:00:57.929Z,8.800252
2022-09-03T02:06:00.755Z,8.742322
2022-09-03T02:11:02.589Z,8.865886
2022-09-03T02:16:05.574Z,8.26081
2022-09-03T02:21:07.405Z,7.390556
2022-09-03T02:26:09.396Z,7.819502
2022-09-03T02:31:11.329Z,8.304666
2022-09-03T02:36:14.003Z,8.040318
2022-09-03T02:41:15.767Z,8.47929
2022-09-03T02:46:17.423Z,8.446194
2022-09-03T02:51:19.113Z,8.52122
2022-09-03T02:56:20.583Z,8.74718
2022-09-03T03:01:23.802Z,8.104746
2022-09-03T03:06:26.994Z,6.805384
2022-09-03T03:11:28.745Z,6.497642
2022-09-03T03:16:30.674Z,6.999836
2022-09-03T03:21:32.680Z,7.267588
2022-09-03T03:26:34.444Z,7.127538
2022-09-03T03:31:41.063Z,6.542652
2022-09-03T03:36:43.336Z,6.837002
2022-09-03T03:41:44.806Z,6.665782
2022-09-03T03:46:46.419Z,7.689316
2022-09-03T03:51:48.498Z,7.11694
2022-09-03T03:56:55.577Z,7.123686
2022-09-03T04:01:57.639Z,7.133116
2022-09-03T04:06:59.553Z,7.123686
2022-09-03T04:12:01.192Z,6.183278
2022-09-03T04:17:03.004Z,6.259334
2022-09-03T04:22:04.752Z,6.316396
2022-09-03T04:27:06.419Z,6.571338
2022-09-03T04:32:08.217Z,7.73875
2022-09-03T04:37:10.148Z,6.804788
2022-09-03T04:42:11.569Z,7.422036
2022-09-03T04:47:13.251Z,7.654008
2022-09-03T04:52:15.091Z,6.699908
2022-09-03T04:57:16.549Z,6.91701
2022-09-03T05:02:18.084Z,6.818914
2022-09-03T05:07:20.394Z,6.993948
2022-09-03T05:12:23.792Z,7.298162
2022-09-03T05:17:25.624Z,7.761534
2022-09-03T05:22:27.165Z,7.84128
2022-09-03T05:27:28.735Z,8.15859
2022-09-03T05:32:30.320Z,8.176244
2022-09-03T05:37:32.162Z,8.187276
2022-09-03T05:42:33.626Z,9.244654
2022-09-03T05:47:35.080Z,8.876756
2022-09-03T05:52:36.668Z,9.132284
2022-09-03T05:57:38.098Z,9.609062
2022-09-03T06:02:39.697Z,10.489046
2022-09-03T06:07:41.783Z,10.933462
2022-09-03T06:12:43.194Z,11.783224
2022-09-03T06:17:44.737Z,13.057784
2022-09-03T06:22:46.422Z,12.652204
2022-09-03T06:27:47.860Z,14.069664
2022-09-03T06:32:49.385Z,13.711306
2022-09-03T06:37:51.316Z,14.57517
2022-09-03T06:42:52.859Z,14.996124
2022-09-03T06:47:54.332Z,16.044046
2022-09-03T06:52:55.797Z,15.89744
2022-09-03T06:57:57.221Z,16.805026
2022-09-03T07:02:59.090Z,17.295458
2022-09-03T07:08:01.269Z,17.968698
2022-09-03T07:13:03.054Z,17.322108
2022-09-03T07:18:04.847Z,18.333624
2022-09-03T07:23:06.845Z,19.004232
2022-09-03T07:28:08.719Z,20.015586
2022-09-03T07:33:10.155Z,20.212874
2022-09-03T07:38:12.242Z,19.75695
2022-09-03T07:43:14.089Z,20.737216
2022-09-03T07:48:15.881Z,21.260622
2022-09-03T07:53:17.705Z,21.144344
2022-09-03T07:58:19.746Z,21.528594
2022-09-03T08:03:21.203Z,20.97638
2022-09-03T08:08:22.842Z,21.051026
2022-09-03T08:13:24.852Z,21.914038
2022-09-03T08:18:28.904Z,22.935584
2022-09-03T08:23:31.451Z,22.46286
2022-09-03T08:28:33.330Z,23.525658
2022-09-03T08:33:35.317Z,23.828246
2022-09-03T08:38:37.329Z,24.387246
2022-09-03T08:43:38.833Z,24.430058
2022-09-03T08:48:40.410Z,24.381452
2022-09-03T08:53:41.901Z,24.621132
2022-09-03T08:58:43.491Z,24.831474
2022-09-03T09:03:45.041Z,23.968176
2022-09-03T09:08:47.125Z,26.299054
2022-09-03T09:13:48.640Z,26.327306
2022-09-03T09:18:50.181Z,26.38955
2022-09-03T09:23:51.884Z,26.011514
2022-09-03T09:28:53.450Z,25.47124
2022-09-03T09:33:55.472Z,24.655992
2022-09-03T09:38:57.595Z,25.129164
2022-09-03T09:43:59.362Z,24.817348
2022-09-03T09:49:01.247Z,25.43064
2022-09-03T09:54:03.332Z,25.03187
2022-09-03T09:59:05.056Z,25.23289
2022-09-03T10:04:07.108Z,23.956398
2022-09-03T10:09:09.036Z,25.50568
2022-09-03T10:14:10.809Z,25.723038
2022-09-03T10:19:16.633Z,25.32823
2022-09-03T10:24:18.428Z,26.673562
2022-09-03T10:29:20.116Z,27.092416
2022-09-03T10:34:22.184Z,26.692546
2022-09-03T10:39:24.250Z,24.990618
2022-09-03T10:44:26.074Z,26.210744
2022-09-03T10:49:27.986Z,27.100802
2022-09-03T10:54:29.757Z,25.11147
2022-09-03T10:59:31.622Z,26.369276
2022-09-03T11:04:37.988Z,27.029778
2022-09-03T11:09:39.962Z,26.358204
2022-09-03T11:14:41.359Z,27.076118
2022-09-03T11:19:42.768Z,26.976124
2022-09-03T11:24:44.332Z,26.161146
2022-09-03T11:29:45.905Z,27.552194
2022-09-03T11:34:47.418Z,27.402726
2022-09-03T11:39:49.111Z,27.477358
2022-09-03T11:44:51.655Z,26.771996
2022-09-03T11:49:53.460Z,26.57004
2022-09-03T11:54:55.146Z,26.190714
2022-09-03T11:59:56.663Z,26.714176
2022-09-03T12:04:58.304Z,27.040132
2022-09-03T12:10:00.194Z,26.934438
2022-09-03T12:15:01.917Z,27.201882
2022-09-03T12:20:03.759Z,26.831106
2022-09-03T12:25:06.178Z,26.063962
2022-09-03T12:30:07.909Z,26.920516
2022-09-03T12:35:09.707Z,26.72168
2022-09-03T12:40:11.737Z,27.635784
2022-09-03T12:45:13.460Z,27.036834
2022-09-03T12:50:16.825Z,27.165922
2022-09-03T12:55:18.730Z,26.922918
2022-09-03T13:00:20.285Z,27.08977
2022-09-03T13:05:21.757Z,27.252172
2022-09-03T13:10:23.524Z,27.062196
2022-09-03T13:15:25.047Z,26.943028
2022-09-03T13:20:26.504Z,26.706198
2022-09-03T13:25:28.139Z,26.307604
2022-09-03T13:30:29.988Z,26.49477
2022-09-03T13:35:31.483Z,27.01891
2022-09-03T13:40:33.272Z,26.729592
2022-09-03T13:45:34.946Z,26.588168
2022-09-03T13:50:36.528Z,26.170618
2022-09-03T13:55:38.114Z,26.306532
2022-09-03T14:00:39.634Z,26.882752
2022-09-03T14:05:41.240Z,27.147156
2022-09-03T14:10:43.245Z,26.363226
2022-09-03T14:15:45.755Z,26.095782
2022-09-03T14:20:47.494Z,25.616218
2022-09-03T14:25:49.321Z,25.344962
2022-09-03T14:30:55.683Z,25.560366
2022-09-03T14:35:57.790Z,25.95497
2022-09-03T14:40:59.569Z,25.405672
2022-09-03T14:46:05.805Z,25.562808
2022-09-03T14:51:08.191Z,25.585524
2022-09-03T14:56:12.935Z,24.964728
2022-09-03T15:01:14.837Z,24.657526
2022-09-03T15:06:16.352Z,24.812884
2022-09-03T15:11:18.486Z,24.598132
2022-09-03T15:16:20.278Z,24.888128
2022-09-03T15:21:22.034Z,24.765906
2022-09-03T15:26:23.712Z,24.28656
2022-09-03T15:31:25.598Z,24.290088
2022-09-03T15:36:27.489Z,23.504178
2022-09-03T15:41:29.831Z,23.80545
2022-09-03T15:46:31.601Z,22.728472
2022-09-03T15:51:33.678Z,22.936602
2022-09-03T15:56:35.552Z,22.513326
2022-09-03T16:01:37.292Z,21.977544
2022-09-03T16:06:39.032Z,21.9486
2022-09-03T16:11:41.061Z,21.084896
2022-09-03T16:16:42.555Z,21.10122
2022-09-03T16:21:45.855Z,20.594532
2022-09-03T16:26:47.463Z,20.248046
2022-09-03T16:31:49.044Z,20.030892
2022-09-03T16:36:50.624Z,20.585318
2022-09-03T16:41:52.470Z,19.96778
2022-09-03T16:46:54.116Z,20.03229
2022-09-03T16:51:55.772Z,20.180144
2022-09-03T16:56:57.775Z,20.170442
2022-09-03T17:01:59.630Z,20.254356
2022-09-03T17:07:01.467Z,19.605934
2022-09-03T17:12:03.391Z,19.187516
2022-09-03T17:17:05.045Z,19.044506
2022-09-03T17:22:06.848Z,19.577234
2022-09-03T17:27:08.658Z,19.313116
2022-09-03T17:32:10.441Z,18.785246
2022-09-03T17:37:12.293Z,19.306304
2022-09-03T17:42:14.369Z,19.031968
2022-09-03T17:47:17.828Z,18.827868
2022-09-03T17:52:19.719Z,18.709582
2022-09-03T17:57:21.657Z,18.791868
2022-09-03T18:02:23.412Z,18.51053
2022-09-03T18:07:25.296Z,18.197616
2022-09-03T18:12:27.507Z,17.881676
2022-09-03T18:17:29.433Z,17.498322
2022-09-03T18:22:31.224Z,17.966676
2022-09-03T18:27:33.103Z,17.34481
2022-09-03T18:32:34.888Z,17.211258
2022-09-03T18:37:36.767Z,17.407922
2022-09-03T18:42:38.791Z,17.34675
2022-09-03T18:48:04.679Z,17.123422
2022-09-03T18:53:08.650Z,16.443126
2022-09-03T18:58:10.389Z,16.291554
2022-09-03T19:03:12.086Z,15.293052
2022-09-03T19:08:17.471Z,14.901408
2022-09-03T19:13:20.086Z,15.16577
2022-09-03T19:18:22.245Z,15.497044
2022-09-03T19:23:24.145Z,14.388832
2022-09-03T19:28:26.071Z,15.365704
2022-09-03T19:33:27.832Z,15.243442
2022-09-03T19:38:29.530Z,15.103282
2022-09-03T19:43:36.157Z,15.269224
2022-09-03T19:48:38.836Z,15.400306
2022-09-03T19:53:40.530Z,14.608712
2022-09-03T19:58:43.700Z,15.820284
2022-09-03T20:03:45.704Z,14.988972
2022-09-03T20:08:47.138Z,15.283784
2022-09-03T20:13:49.133Z,15.801314
2022-09-03T20:18:50.728Z,15.67376
2022-09-03T20:23:52.425Z,14.820546
2022-09-03T20:28:53.962Z,15.29924
2022-09-03T20:33:55.466Z,14.995322
2022-09-03T20:38:57.332Z,15.499866
2022-09-03T20:43:59.825Z,14.956134
2022-09-03T20:49:01.575Z,14.9473
2022-09-03T20:54:03.325Z,15.10681
2022-09-03T20:59:05.208Z,15.222002
2022-09-03T21:04:07.100Z,15.185188
2022-09-03T21:09:08.881Z,15.11122
2022-09-03T21:14:10.928Z,15.19949
2022-09-03T21:19:12.665Z,15.328632
2022-09-03T21:24:14.439Z,14.914652
2022-09-03T21:29:20.870Z,15.28829
2022-09-03T21:34:23.784Z,14.990112
2022-09-03T21:39:25.655Z,14.84006
2022-09-03T21:44:27.689Z,14.811198
2022-09-03T21:49:29.471Z,15.03876
2022-09-03T21:54:31.361Z,14.367922
2022-09-03T21:59:33.276Z,14.434562
2022-09-03T22:04:35.012Z,14.652584
2022-09-03T22:09:36.809Z,14.54985
2022-09-03T22:14:38.875Z,14.23817
2022-09-03T22:19:40.628Z,14.629638
2022-09-03T22:24:42.404Z,14.531476
2022-09-03T22:29:44.032Z,13.832128
2022-09-03T22:34:45.613Z,12.489518
2022-09-03T22:39:47.125Z,12.96148
2022-09-03T22:44:48.861Z,12.325788
2022-09-03T22:49:50.505Z,12.454834
2022-09-03T22:54:52.397Z,12.643722
2022-09-03T22:59:54.033Z,12.24034
2022-09-03T23:04:55.920Z,11.97317
2022-09-03T23:09:57.773Z,12.229418
2022-09-03T23:14:59.540Z,12.627222
2022-09-03T23:20:01.276Z,12.082784
2022-09-03T23:25:02.749Z,11.709962
2022-09-03T23:30:04.481Z,11.404742
2022-09-03T23:35:05.959Z,11.308086
2022-09-03T23:40:07.803Z,11.798842
2022-09-03T23:45:10.277Z,11.240292
2022-09-03T23:50:17.360Z,11.99214
2022-09-03T23:55:18.849Z,11.853568
